createdAt,value
2019-05-17T00:03:37.220Z,52.60
2019-05-17T00:06:06.471Z,52.50
2019-05-17T00:08:34.930Z,53.10
2019-05-17T00:11:01.817Z,53.10
2019-05-17T00:13:28.798Z,53.30
2019-05-17T00:15:56.593Z,53.30
2019-05-17T00:18:26.316Z,53.40
2019-05-17T00:20:52.872Z,53.10
2019-05-17T00:23:19.784Z,53.10
2019-05-17T00:25:47.069Z,53.00
2019-05-17T00:28:16.403Z,53.80
2019-05-17T00:30:46.334Z,54.30
2019-05-17T00:33:12.947Z,54.40
2019-05-17T00:35:40.381Z,53.20
2019-05-17T00:38:19.956Z,53.50
2019-05-17T00:40:47.890Z,52.70
2019-05-17T00:43:16.745Z,53.20
2019-05-17T00:45:46.670Z,53.50
2019-05-17T00:48:12.079Z,53.20
2019-05-17T00:50:39.016Z,52.80
2019-05-17T00:53:07.232Z,52.80
2019-05-17T00:55:36.226Z,53.80
2019-05-17T00:58:03.164Z,53.60
2019-05-17T01:00:30.660Z,53.40
2019-05-17T01:02:57.479Z,52.80
2019-05-17T01:05:24.614Z,53.70
2019-05-17T01:07:51.435Z,53.70
2019-05-17T01:10:18.392Z,52.60
2019-05-17T01:12:45.215Z,53.00
2019-05-17T01:15:12.162Z,53.60
2019-05-17T01:17:39.398Z,52.50
2019-05-17T01:20:09.178Z,54.10
2019-05-17T01:22:36.672Z,54.70
2019-05-17T01:25:06.972Z,53.20
2019-05-17T01:27:33.880Z,54.70
2019-05-17T01:30:01.030Z,53.50
2019-05-17T01:32:28.001Z,53.50
2019-05-17T01:34:56.456Z,52.50
2019-05-17T01:37:23.604Z,53.10
2019-05-17T01:39:50.859Z,52.30
2019-05-17T01:42:17.639Z,53.40
2019-05-17T01:44:44.671Z,53.10
2019-05-17T01:47:11.623Z,53.40
2019-05-17T01:49:38.564Z,53.00
2019-05-17T01:52:07.468Z,53.00
2019-05-17T01:54:36.158Z,52.90
2019-05-17T01:57:03.060Z,52.60
2019-05-17T01:59:30.214Z,52.70
2019-05-17T02:01:59.206Z,53.20
2019-05-17T02:04:26.822Z,52.90
2019-05-17T02:06:53.842Z,52.60
2019-05-17T02:09:34.859Z,53.00
2019-05-17T02:11:49.403Z,52.20
2019-05-17T02:14:16.697Z,53.20
2019-05-17T02:17:06.838Z,53.20
2019-05-17T02:19:33.833Z,53.30
2019-05-17T02:22:00.807Z,52.90
2019-05-17T02:24:28.751Z,52.70
2019-05-17T02:26:57.010Z,52.50
2019-05-17T02:29:24.356Z,52.80
2019-05-17T02:31:52.622Z,53.00
2019-05-17T02:34:23.070Z,52.90
2019-05-17T02:36:48.511Z,52.80
2019-05-17T02:39:15.360Z,53.20
2019-05-17T02:41:43.031Z,52.30
2019-05-17T02:44:12.769Z,53.10
2019-05-17T02:46:45.001Z,53.10
2019-05-17T02:49:13.750Z,52.80
2019-05-17T02:51:43.098Z,52.70
2019-05-17T02:54:09.212Z,52.70
2019-05-17T02:56:36.058Z,53.30
2019-05-17T02:59:03.514Z,52.80
2019-05-17T03:01:33.261Z,53.70
2019-05-17T03:04:03.549Z,52.40
2019-05-17T03:06:28.758Z,53.20
2019-05-17T03:08:55.882Z,52.70
2019-05-17T03:11:23.031Z,53.50
2019-05-17T03:13:52.408Z,52.70
2019-05-17T03:16:18.704Z,53.10
2019-05-17T03:18:45.710Z,53.50
2019-05-17T03:21:13.511Z,53.80
2019-05-17T03:23:48.000Z,53.30
2019-05-17T03:26:15.147Z,52.80
2019-05-17T03:28:42.741Z,53.60
2019-05-17T03:31:16.382Z,53.70
2019-05-17T03:33:38.405Z,53.60
2019-05-17T03:36:06.703Z,52.80
2019-05-17T03:38:34.069Z,53.60
2019-05-17T03:41:13.842Z,53.80
2019-05-17T03:43:34.825Z,54.00
2019-05-17T03:46:02.452Z,53.60
2019-05-17T03:48:28.120Z,53.10
2019-05-17T03:50:54.980Z,53.00
2019-05-17T03:53:22.923Z,53.00
2019-05-17T03:55:53.993Z,53.30
2019-05-17T03:58:23.282Z,53.50
2019-05-17T04:00:48.760Z,53.10
2019-05-17T04:03:15.915Z,53.50
2019-05-17T04:05:43.220Z,53.90
2019-05-17T04:08:13.638Z,53.30
2019-05-17T04:10:53.037Z,53.00
2019-05-17T04:13:23.126Z,52.60
2019-05-17T04:15:52.992Z,53.10
2019-05-17T04:18:19.171Z,52.70
2019-05-17T04:20:46.034Z,52.30
2019-05-17T04:23:13.092Z,51.30
2019-05-17T04:25:43.313Z,50.70
2019-05-17T04:28:08.921Z,50.30
2019-05-17T04:30:36.070Z,51.00
2019-05-17T04:33:03.873Z,49.10
2019-05-17T04:35:32.790Z,49.20
2019-05-17T04:38:03.671Z,47.00
2019-05-17T04:40:28.971Z,47.30
2019-05-17T04:42:55.857Z,44.10
2019-05-17T04:45:23.225Z,42.60
2019-05-17T04:47:52.893Z,45.00
2019-05-17T04:50:22.821Z,44.00
2019-05-17T04:52:48.952Z,42.90
2019-05-17T04:55:15.874Z,45.30
2019-05-17T04:57:44.436Z,42.00
2019-05-17T05:00:13.230Z,42.00
2019-05-17T05:02:43.246Z,44.80
2019-05-17T05:05:09.082Z,41.00
2019-05-17T05:07:36.225Z,40.80
2019-05-17T05:10:04.992Z,41.60
2019-05-17T05:12:33.625Z,43.70
2019-05-17T05:15:03.612Z,40.60
2019-05-17T05:17:32.672Z,40.50
2019-05-17T05:20:02.519Z,40.30
2019-05-17T05:22:28.346Z,41.40
2019-05-17T05:24:55.501Z,39.60
2019-05-17T05:27:22.479Z,40.50
2019-05-17T05:29:52.049Z,40.00
2019-05-17T05:32:18.301Z,40.30
2019-05-17T05:34:46.497Z,40.40
2019-05-17T05:37:13.787Z,41.00
2019-05-17T05:39:41.423Z,40.40
2019-05-17T05:42:11.585Z,40.80
2019-05-17T05:44:37.651Z,40.70
2019-05-17T05:47:04.576Z,39.60
2019-05-17T05:49:32.066Z,40.20
2019-05-17T05:52:01.784Z,40.40
2019-05-17T05:54:28.635Z,41.30
2019-05-17T05:56:55.566Z,40.00
2019-05-17T05:59:22.610Z,40.30
2019-05-17T06:01:49.547Z,39.20
2019-05-17T06:04:16.382Z,40.60
2019-05-17T06:06:43.308Z,39.80
2019-05-17T06:09:12.083Z,38.10
2019-05-17T06:11:41.483Z,38.30
2019-05-17T06:14:07.833Z,40.60
2019-05-17T06:16:34.679Z,37.30
2019-05-17T06:19:02.379Z,37.40
2019-05-17T06:21:31.785Z,36.80
2019-05-17T06:23:58.097Z,35.60
2019-05-17T06:26:25.024Z,36.30
2019-05-17T06:28:52.147Z,36.20
2019-05-17T06:31:20.348Z,36.60
2019-05-17T06:33:47.311Z,35.60
2019-05-17T06:36:14.138Z,37.30
2019-05-17T06:38:42.063Z,34.70
2019-05-17T06:41:09.140Z,35.50
2019-05-17T06:43:38.396Z,36.90
2019-05-17T06:46:04.962Z,37.40
2019-05-17T06:48:32.164Z,34.60
2019-05-17T06:50:59.083Z,34.60
2019-05-17T06:53:26.105Z,37.00
2019-05-17T06:55:53.521Z,34.20
2019-05-17T06:58:22.224Z,34.00
2019-05-17T07:00:49.840Z,34.00
2019-05-17T07:03:16.837Z,33.10
2019-05-17T07:05:45.852Z,33.10
2019-05-17T07:08:12.820Z,33.70
2019-05-17T07:10:39.962Z,32.80
2019-05-17T07:13:07.308Z,32.70
2019-05-17T07:15:46.879Z,33.70
2019-05-17T07:18:02.903Z,31.40
2019-05-17T07:20:29.982Z,32.20
2019-05-17T07:23:00.232Z,31.40
2019-05-17T07:25:26.392Z,33.30
2019-05-17T07:27:54.542Z,31.30
2019-05-17T07:30:21.492Z,33.50
2019-05-17T07:32:49.839Z,32.80
2019-05-17T07:35:16.959Z,33.30
2019-05-17T07:37:43.783Z,31.80
2019-05-17T07:40:11.155Z,31.50
2019-05-17T07:42:39.721Z,30.10
2019-05-17T07:45:07.040Z,32.00
2019-05-17T07:47:34.042Z,32.70
2019-05-17T07:50:13.587Z,33.30
2019-05-17T07:52:40.450Z,33.10
2019-05-17T07:55:10.512Z,35.40
2019-05-17T07:57:36.740Z,35.20
2019-05-17T08:00:05.603Z,34.30
2019-05-17T08:02:32.540Z,34.60
2019-05-17T08:05:00.497Z,33.30
2019-05-17T08:07:30.011Z,35.50
2019-05-17T08:09:56.383Z,35.40
2019-05-17T08:12:23.206Z,35.10
2019-05-17T08:14:50.421Z,35.90
2019-05-17T08:17:19.676Z,32.60
2019-05-17T08:19:46.223Z,33.20
2019-05-17T08:22:13.062Z,31.80
2019-05-17T08:24:40.068Z,29.60
2019-05-17T08:27:07.233Z,30.00
2019-05-17T08:29:34.215Z,32.00
2019-05-17T08:32:01.099Z,31.00
2019-05-17T08:34:29.320Z,31.10
2019-05-17T08:36:56.475Z,26.70
2019-05-17T08:39:23.315Z,25.10
2019-05-17T08:41:50.259Z,25.70
2019-05-17T08:44:19.137Z,25.70
2019-05-17T08:46:45.827Z,26.80
2019-05-17T08:49:12.779Z,26.20
2019-05-17T08:51:39.870Z,24.60
2019-05-17T08:54:06.802Z,25.90
2019-05-17T08:56:34.026Z,22.60
2019-05-17T08:59:01.303Z,25.10
2019-05-17T09:01:30.160Z,26.60
2019-05-17T09:03:56.878Z,24.30
2019-05-17T09:06:23.803Z,25.80
2019-05-17T09:08:50.672Z,27.40
2019-05-17T09:11:19.525Z,26.50
2019-05-17T09:13:57.356Z,24.80
2019-05-17T09:16:15.221Z,28.20
2019-05-17T09:18:42.370Z,27.10
2019-05-17T09:21:09.784Z,27.20
2019-05-17T09:23:36.979Z,28.00
2019-05-17T09:26:03.803Z,26.70
2019-05-17T09:28:30.971Z,27.40
2019-05-17T09:30:59.952Z,26.90
2019-05-17T09:33:26.521Z,25.80
2019-05-17T09:35:53.650Z,28.00
2019-05-17T09:38:20.619Z,27.80
2019-05-17T09:40:47.474Z,28.30
2019-05-17T09:43:16.252Z,29.30
2019-05-17T09:45:43.172Z,27.60
2019-05-17T09:48:10.522Z,27.20
2019-05-17T09:50:39.831Z,29.60
2019-05-17T09:53:06.356Z,31.40
2019-05-17T09:55:33.231Z,28.70
2019-05-17T09:58:00.375Z,29.70
2019-05-17T10:00:29.708Z,28.30
2019-05-17T10:02:56.789Z,29.60
2019-05-17T10:05:23.755Z,28.80
2019-05-17T10:07:50.905Z,30.10
2019-05-17T10:10:20.254Z,31.80
2019-05-17T10:12:49.580Z,27.60
2019-05-17T10:15:16.415Z,27.70
2019-05-17T10:17:43.248Z,30.30
2019-05-17T10:20:10.797Z,27.30
2019-05-17T10:22:40.225Z,27.00
2019-05-17T10:25:09.451Z,26.00
2019-05-17T10:27:35.895Z,26.20
2019-05-17T10:30:04.831Z,27.30
2019-05-17T10:32:31.746Z,28.40
2019-05-17T10:35:00.299Z,28.70
2019-05-17T10:37:27.212Z,30.00
2019-05-17T10:39:54.047Z,27.70
2019-05-17T10:42:21.075Z,29.90
2019-05-17T10:44:51.407Z,29.30
2019-05-17T10:47:19.436Z,31.30
2019-05-17T10:49:45.712Z,31.00
2019-05-17T10:52:12.529Z,31.50
2019-05-17T10:54:40.215Z,32.60
2019-05-17T10:57:10.257Z,32.00
2019-05-17T10:59:36.091Z,31.90
2019-05-17T11:02:03.119Z,31.40
2019-05-17T11:04:29.978Z,32.60
2019-05-17T11:06:56.814Z,30.80
2019-05-17T11:09:23.635Z,32.70
2019-05-17T11:11:50.582Z,31.90
2019-05-17T11:14:17.515Z,31.10
2019-05-17T11:16:44.368Z,32.50
2019-05-17T11:19:11.295Z,32.70
2019-05-17T11:21:38.289Z,32.90
2019-05-17T11:24:05.169Z,31.50
2019-05-17T11:26:32.075Z,31.20
2019-05-17T11:28:59.027Z,32.50
2019-05-17T11:31:26.335Z,33.20
2019-05-17T11:33:53.152Z,32.60
2019-05-17T11:36:19.992Z,32.10
2019-05-17T11:38:46.911Z,32.40
2019-05-17T11:41:21.170Z,32.20
2019-05-17T11:43:42.504Z,31.30
2019-05-17T11:46:09.448Z,31.40
2019-05-17T11:48:36.306Z,31.00
2019-05-17T11:51:03.227Z,31.90
2019-05-17T11:53:30.068Z,31.20
2019-05-17T11:55:56.991Z,31.80
2019-05-17T11:58:23.943Z,31.40
2019-05-17T12:00:50.863Z,31.70
2019-05-17T12:03:17.706Z,33.20
2019-05-17T12:05:44.523Z,32.20
2019-05-17T12:08:11.377Z,31.90
2019-05-17T12:10:38.360Z,32.30
2019-05-17T12:13:05.347Z,31.60
2019-05-17T12:15:44.530Z,32.40
2019-05-17T12:18:01.039Z,31.60
2019-05-17T12:20:27.989Z,32.60
2019-05-17T12:22:54.805Z,32.40
2019-05-17T12:25:21.752Z,32.30
2019-05-17T12:27:48.739Z,32.70
2019-05-17T12:30:15.870Z,32.60
2019-05-17T12:32:42.834Z,33.00
2019-05-17T12:35:09.654Z,33.30
2019-05-17T12:37:36.660Z,33.40
2019-05-17T12:40:07.095Z,33.40
2019-05-17T12:42:35.197Z,35.80
2019-05-17T12:45:05.790Z,34.10
2019-05-17T12:47:32.755Z,33.80
2019-05-17T12:49:59.798Z,34.00
2019-05-17T12:52:26.607Z,33.90
2019-05-17T12:54:53.535Z,33.30
2019-05-17T12:57:20.644Z,35.30
2019-05-17T12:59:47.594Z,35.20
2019-05-17T13:02:14.545Z,35.10
2019-05-17T13:04:41.584Z,34.40
2019-05-17T13:07:08.511Z,34.90
2019-05-17T13:09:35.307Z,34.40
2019-05-17T13:12:02.185Z,34.80
2019-05-17T13:14:29.195Z,34.80
2019-05-17T13:16:56.144Z,33.90
2019-05-17T13:19:25.298Z,34.40
2019-05-17T13:21:51.844Z,34.40
2019-05-17T13:24:18.759Z,35.20
2019-05-17T13:26:45.756Z,33.00
2019-05-17T13:29:13.907Z,34.10
2019-05-17T13:31:40.978Z,33.10
2019-05-17T13:34:07.805Z,33.50
2019-05-17T13:36:34.618Z,35.50
2019-05-17T13:39:02.143Z,33.00
2019-05-17T13:41:31.143Z,32.80
2019-05-17T13:43:58.022Z,33.60
2019-05-17T13:46:32.896Z,32.80
2019-05-17T13:48:53.659Z,32.80
2019-05-17T13:51:20.477Z,32.80
2019-05-17T13:53:47.464Z,32.90
2019-05-17T13:56:15.699Z,33.20
2019-05-17T13:58:42.759Z,32.90
2019-05-17T14:01:09.571Z,33.20
2019-05-17T14:03:36.740Z,32.50
2019-05-17T14:06:04.172Z,34.20
2019-05-17T14:08:31.151Z,33.40
2019-05-17T14:10:58.137Z,32.70
2019-05-17T14:13:25.122Z,33.00
2019-05-17T14:15:53.062Z,33.20
2019-05-17T14:18:20.016Z,33.60
2019-05-17T14:20:46.838Z,33.70
2019-05-17T14:23:13.898Z,33.10
2019-05-17T14:25:40.880Z,34.70
2019-05-17T14:28:11.523Z,33.90
2019-05-17T14:30:38.855Z,33.20
2019-05-17T14:33:05.946Z,32.70
2019-05-17T14:35:33.034Z,32.80
2019-05-17T14:38:00.139Z,33.50
2019-05-17T14:41:00.539Z,31.90
2019-05-17T14:42:55.851Z,31.80
2019-05-17T14:45:22.819Z,31.70
2019-05-17T14:47:49.918Z,31.90
2019-05-17T14:50:16.900Z,31.80
2019-05-17T14:52:43.823Z,31.30
2019-05-17T14:55:10.863Z,30.00
2019-05-17T14:57:37.982Z,31.00
2019-05-17T15:00:06.337Z,30.20
2019-05-17T15:02:33.686Z,31.10
2019-05-17T15:05:00.608Z,30.40
2019-05-17T15:07:27.750Z,30.80
2019-05-17T15:09:54.717Z,31.30
2019-05-17T15:12:28.258Z,32.20
2019-05-17T15:14:50.310Z,31.00
2019-05-17T15:17:17.207Z,31.30
2019-05-17T15:19:44.165Z,31.40
2019-05-17T15:22:10.984Z,31.00
2019-05-17T15:24:37.938Z,30.80
2019-05-17T15:27:06.326Z,30.20
2019-05-17T15:29:33.315Z,31.80
2019-05-17T15:32:00.309Z,30.90
2019-05-17T15:34:27.186Z,30.10
2019-05-17T15:36:54.109Z,31.70
2019-05-17T15:39:21.117Z,30.60
2019-05-17T15:41:48.001Z,30.10
2019-05-17T15:44:14.899Z,29.80
2019-05-17T15:46:41.856Z,30.50
2019-05-17T15:49:08.783Z,29.20
2019-05-17T15:51:35.627Z,28.80
2019-05-17T15:54:02.543Z,28.40
2019-05-17T15:56:29.499Z,28.30
2019-05-17T15:58:56.330Z,29.20
2019-05-17T16:01:23.302Z,29.00
2019-05-17T16:03:50.232Z,29.50
2019-05-17T16:06:17.199Z,29.60
2019-05-17T16:08:44.517Z,30.30
2019-05-17T16:11:11.435Z,29.50
2019-05-17T16:13:38.370Z,30.10
2019-05-17T16:16:05.319Z,30.70
2019-05-17T16:18:32.151Z,31.10
2019-05-17T16:20:59.086Z,31.20
2019-05-17T16:23:26.159Z,30.30
2019-05-17T16:25:53.091Z,31.00
2019-05-17T16:28:19.929Z,30.50
2019-05-17T16:30:46.774Z,31.50
2019-05-17T16:33:13.701Z,30.90
2019-05-17T16:35:40.605Z,30.80
2019-05-17T16:38:07.552Z,30.40
2019-05-17T16:40:34.493Z,28.00
2019-05-17T16:43:16.780Z,29.70
2019-05-17T16:45:31.391Z,30.00
2019-05-17T16:47:58.351Z,29.60
2019-05-17T16:50:25.191Z,30.00
2019-05-17T16:53:04.967Z,28.60
2019-05-17T16:55:21.868Z,27.20
2019-05-17T16:57:48.682Z,27.40
2019-05-17T17:00:46.471Z,27.70
2019-05-17T17:03:13.427Z,28.60
2019-05-17T17:05:40.271Z,27.20
2019-05-17T17:08:07.202Z,26.10
2019-05-17T17:10:34.089Z,25.60
2019-05-17T17:13:00.930Z,26.00
2019-05-17T17:15:27.751Z,26.90
2019-05-17T17:17:54.570Z,25.20
2019-05-17T17:20:21.515Z,25.70
2019-05-17T17:22:48.450Z,26.80
2019-05-17T17:25:15.471Z,25.40
2019-05-17T17:27:42.378Z,26.00
2019-05-17T17:30:09.199Z,27.40
2019-05-17T17:32:36.035Z,26.20
2019-05-17T17:35:04.451Z,26.50
2019-05-17T17:37:31.371Z,25.70
2019-05-17T17:39:58.186Z,25.40
2019-05-17T17:42:25.028Z,26.40
2019-05-17T17:44:51.842Z,26.00
2019-05-17T17:47:18.819Z,25.90
2019-05-17T17:49:45.740Z,26.10
2019-05-17T17:52:12.596Z,26.40
2019-05-17T17:54:39.543Z,27.00
2019-05-17T17:57:06.483Z,27.30
2019-05-17T17:59:33.294Z,27.70
2019-05-17T18:02:00.251Z,27.00
2019-05-17T18:04:27.239Z,28.00
2019-05-17T18:06:54.145Z,28.60
2019-05-17T18:09:22.141Z,28.60
2019-05-17T18:11:49.114Z,27.90
2019-05-17T18:14:16.075Z,28.40
2019-05-17T18:16:42.900Z,28.80
2019-05-17T18:19:09.749Z,29.00
2019-05-17T18:21:36.669Z,28.70
2019-05-17T18:24:03.623Z,28.70
2019-05-17T18:26:30.563Z,28.70
2019-05-17T18:28:57.503Z,29.70
2019-05-17T18:31:24.433Z,29.70
2019-05-17T18:33:51.375Z,29.30
2019-05-17T18:36:18.303Z,29.90
2019-05-17T18:38:46.251Z,30.00
2019-05-17T18:41:13.093Z,30.50
2019-05-17T18:43:39.930Z,30.50
2019-05-17T18:46:06.867Z,30.40
2019-05-17T18:48:33.703Z,31.50
2019-05-17T18:51:00.711Z,31.70
2019-05-17T18:53:27.526Z,32.50
2019-05-17T18:55:54.469Z,33.70
2019-05-17T18:58:21.286Z,34.30
2019-05-17T19:00:49.115Z,35.10
2019-05-17T19:03:16.118Z,35.40
2019-05-17T19:05:45.259Z,36.30
2019-05-17T19:08:11.614Z,36.30
2019-05-17T19:10:38.545Z,37.30
2019-05-17T19:13:18.756Z,37.20
2019-05-17T19:15:45.627Z,37.40
2019-05-17T19:18:12.571Z,37.70
2019-05-17T19:20:39.523Z,38.70
2019-05-17T19:23:06.466Z,38.90
2019-05-17T19:25:33.455Z,39.10
2019-05-17T19:28:00.398Z,39.60
2019-05-17T19:30:27.207Z,39.50
2019-05-17T19:32:54.152Z,39.80
2019-05-17T19:35:21.071Z,40.30
2019-05-17T19:37:48.021Z,40.30
2019-05-17T19:40:15.447Z,40.30
2019-05-17T19:42:42.402Z,40.50
2019-05-17T19:45:09.211Z,40.90
2019-05-17T19:47:36.075Z,41.10
2019-05-17T19:50:05.191Z,40.80
2019-05-17T19:52:32.160Z,41.90
2019-05-17T19:54:59.086Z,40.70
2019-05-17T19:57:26.047Z,40.80
2019-05-17T19:59:52.979Z,40.90
2019-05-17T20:02:19.959Z,40.80
2019-05-17T20:04:46.926Z,40.90
2019-05-17T20:07:13.853Z,40.70
2019-05-17T20:09:40.804Z,40.90
2019-05-17T20:12:07.700Z,41.00
2019-05-17T20:14:34.635Z,41.10
2019-05-17T20:17:01.520Z,40.90
2019-05-17T20:19:28.643Z,41.10
2019-05-17T20:21:55.571Z,42.10
2019-05-17T20:24:22.403Z,40.70
2019-05-17T20:26:49.231Z,41.00
2019-05-17T20:29:17.375Z,40.90
2019-05-17T20:31:44.327Z,41.20
2019-05-17T20:34:11.252Z,41.20
2019-05-17T20:36:38.211Z,40.90
2019-05-17T20:39:05.142Z,41.30
2019-05-17T20:41:32.087Z,41.50
2019-05-17T20:43:58.930Z,41.10
2019-05-17T20:46:25.769Z,41.10
2019-05-17T20:48:52.695Z,41.30
2019-05-17T20:51:19.653Z,41.60
2019-05-17T20:53:46.584Z,41.60
2019-05-17T20:56:13.522Z,41.00
2019-05-17T20:58:40.471Z,41.60
2019-05-17T21:01:07.384Z,41.40
2019-05-17T21:03:34.227Z,41.50
2019-05-17T21:06:01.052Z,41.80
2019-05-17T21:08:27.999Z,42.00
2019-05-17T21:10:56.104Z,42.20
2019-05-17T21:13:22.963Z,43.10
2019-05-17T21:15:49.838Z,43.80
2019-05-17T21:18:16.696Z,43.80
2019-05-17T21:20:46.554Z,43.70
2019-05-17T21:23:14.386Z,43.80
2019-05-17T21:25:42.986Z,43.90
2019-05-17T21:28:09.887Z,44.00
2019-05-17T21:30:37.019Z,43.70
2019-05-17T21:33:03.868Z,43.30
2019-05-17T21:35:30.999Z,43.20
2019-05-17T21:37:57.968Z,42.60
2019-05-17T21:40:25.546Z,42.80
2019-05-17T21:42:52.628Z,43.20
2019-05-17T21:45:19.670Z,42.70
2019-05-17T21:47:46.571Z,42.20
2019-05-17T21:50:13.535Z,42.30
2019-05-17T21:52:40.363Z,42.80
2019-05-17T21:55:07.215Z,42.50
2019-05-17T21:57:34.136Z,42.50
2019-05-17T22:00:01.081Z,42.50
2019-05-17T22:02:28.018Z,43.00
2019-05-17T22:04:54.955Z,43.70
2019-05-17T22:07:21.881Z,42.90
2019-05-17T22:09:49.139Z,42.70
2019-05-17T22:12:16.950Z,43.30
2019-05-17T22:14:43.900Z,43.60
2019-05-17T22:17:10.864Z,43.50
2019-05-17T22:19:37.692Z,43.90
2019-05-17T22:22:04.643Z,43.90
2019-05-17T22:24:31.599Z,44.20
2019-05-17T22:26:58.535Z,44.20
2019-05-17T22:29:25.477Z,44.20
2019-05-17T22:31:52.416Z,43.90
2019-05-17T22:34:19.241Z,44.30
2019-05-17T22:36:46.189Z,44.60
2019-05-17T22:39:13.110Z,44.90
2019-05-17T22:41:39.943Z,45.10
2019-05-17T22:44:06.784Z,45.50
2019-05-17T22:46:36.383Z,45.40
2019-05-17T22:49:02.468Z,45.70
2019-05-17T22:51:29.291Z,45.00
2019-05-17T22:53:56.139Z,45.60
2019-05-17T22:56:23.089Z,46.30
2019-05-17T22:58:49.927Z,45.60
2019-05-17T23:04:05.573Z,46.20
2019-05-17T23:06:32.451Z,46.00
2019-05-17T23:08:59.395Z,47.10
2019-05-17T23:11:26.351Z,46.10
2019-05-17T23:13:53.311Z,46.20
2019-05-17T23:16:20.239Z,46.40
2019-05-17T23:19:05.729Z,46.50
2019-05-17T23:21:33.767Z,46.20
2019-05-17T23:24:00.595Z,47.10
2019-05-17T23:26:27.450Z,47.20
2019-05-17T23:28:54.258Z,47.20
2019-05-17T23:31:21.203Z,47.70
2019-05-17T23:33:48.125Z,47.80
2019-05-17T23:36:14.963Z,47.90
2019-05-17T23:38:41.879Z,49.00
2019-05-17T23:41:08.828Z,49.50
2019-05-17T23:43:35.639Z,50.20
2019-05-17T23:46:02.472Z,49.80
2019-05-17T23:48:29.412Z,50.90
2019-05-17T23:50:56.355Z,50.20
2019-05-17T23:53:23.280Z,50.20
2019-05-17T23:55:50.127Z,50.00
2019-05-17T23:58:17.052Z,50.90
